sensor_id;sensor_type;location;lat;lon;timestamp;P1;durP1;ratioP1;P2;durP2;ratioP2
22415;SDS011;12204;50.600;4.608;2022-11-20T00:04:37;10.45;;;5.18;;
22415;SDS011;12204;50.600;4.608;2022-11-20T00:09:40;13.32;;;5.28;;
22415;SDS011;12204;50.600;4.608;2022-11-20T00:14:45;10.52;;;4.97;;
22415;SDS011;12204;50.600;4.608;2022-11-20T00:19:49;10.85;;;5.20;;
22415;SDS011;12204;50.600;4.608;2022-11-20T00:24:53;8.50;;;5.10;;
22415;SDS011;12204;50.600;4.608;2022-11-20T00:29:59;11.13;;;5.30;;
22415;SDS011;12204;50.600;4.608;2022-11-20T00:35:03;11.68;;;5.50;;
22415;SDS011;12204;50.600;4.608;2022-11-20T00:40:08;10.18;;;5.55;;
22415;SDS011;12204;50.600;4.608;2022-11-20T00:45:15;14.68;;;5.57;;
22415;SDS011;12204;50.600;4.608;2022-11-20T00:50:19;9.50;;;5.57;;
22415;SDS011;12204;50.600;4.608;2022-11-20T00:55:22;11.27;;;5.82;;
22415;SDS011;12204;50.600;4.608;2022-11-20T01:00:27;10.32;;;5.75;;
22415;SDS011;12204;50.600;4.608;2022-11-20T01:05:33;11.07;;;5.97;;
22415;SDS011;12204;50.600;4.608;2022-11-20T01:10:37;10.73;;;5.97;;
22415;SDS011;12204;50.600;4.608;2022-11-20T01:15:48;10.93;;;6.13;;
22415;SDS011;12204;50.600;4.608;2022-11-20T01:20:52;11.98;;;6.00;;
22415;SDS011;12204;50.600;4.608;2022-11-20T01:25:55;10.55;;;6.18;;
22415;SDS011;12204;50.600;4.608;2022-11-20T01:31:01;10.43;;;6.15;;
22415;SDS011;12204;50.600;4.608;2022-11-20T01:36:15;14.80;;;6.40;;
22415;SDS011;12204;50.600;4.608;2022-11-20T01:41:22;11.57;;;6.85;;
22415;SDS011;12204;50.600;4.608;2022-11-20T01:46:47;12.75;;;6.60;;
22415;SDS011;12204;50.600;4.608;2022-11-20T01:52:00;13.98;;;6.25;;
22415;SDS011;12204;50.600;4.608;2022-11-20T01:57:09;11.88;;;6.88;;
22415;SDS011;12204;50.600;4.608;2022-11-20T02:02:16;10.77;;;6.45;;
22415;SDS011;12204;50.600;4.608;2022-11-20T02:07:19;15.00;;;6.57;;
22415;SDS011;12204;50.600;4.608;2022-11-20T02:12:24;12.52;;;7.10;;
22415;SDS011;12204;50.600;4.608;2022-11-20T02:17:46;15.15;;;6.72;;
22415;SDS011;12204;50.600;4.608;2022-11-20T02:22:51;11.63;;;7.13;;
22415;SDS011;12204;50.600;4.608;2022-11-20T02:28:01;12.05;;;6.70;;
22415;SDS011;12204;50.600;4.608;2022-11-20T02:33:06;12.05;;;6.63;;
22415;SDS011;12204;50.600;4.608;2022-11-20T02:38:09;12.82;;;6.80;;
22415;SDS011;12204;50.600;4.608;2022-11-20T02:43:15;12.18;;;7.20;;
22415;SDS011;12204;50.600;4.608;2022-11-20T02:48:18;11.63;;;7.10;;
22415;SDS011;12204;50.600;4.608;2022-11-20T02:53:25;11.93;;;6.95;;
22415;SDS011;12204;50.600;4.608;2022-11-20T02:58:30;11.88;;;6.80;;
22415;SDS011;12204;50.600;4.608;2022-11-20T03:03:34;12.40;;;7.07;;
22415;SDS011;12204;50.600;4.608;2022-11-20T03:08:37;10.68;;;6.88;;
22415;SDS011;12204;50.600;4.608;2022-11-20T03:13:42;12.10;;;6.95;;
22415;SDS011;12204;50.600;4.608;2022-11-20T03:18:46;11.15;;;7.25;;
22415;SDS011;12204;50.600;4.608;2022-11-20T03:23:50;11.20;;;7.30;;
22415;SDS011;12204;50.600;4.608;2022-11-20T03:28:57;11.95;;;7.25;;
22415;SDS011;12204;50.600;4.608;2022-11-20T03:39:06;11.13;;;6.95;;
22415;SDS011;12204;50.600;4.608;2022-11-20T03:44:12;10.27;;;6.95;;
22415;SDS011;12204;50.600;4.608;2022-11-20T03:49:16;12.00;;;7.32;;
22415;SDS011;12204;50.600;4.608;2022-11-20T03:54:20;10.63;;;6.65;;
22415;SDS011;12204;50.600;4.608;2022-11-20T03:59:25;11.18;;;6.65;;
22415;SDS011;12204;50.600;4.608;2022-11-20T04:04:28;10.15;;;6.28;;
22415;SDS011;12204;50.600;4.608;2022-11-20T04:09:32;11.07;;;6.60;;
22415;SDS011;12204;50.600;4.608;2022-11-20T04:14:37;10.88;;;6.70;;
22415;SDS011;12204;50.600;4.608;2022-11-20T04:19:40;10.25;;;6.65;;
22415;SDS011;12204;50.600;4.608;2022-11-20T04:24:44;11.38;;;6.57;;
22415;SDS011;12204;50.600;4.608;2022-11-20T04:29:49;10.70;;;6.53;;
22415;SDS011;12204;50.600;4.608;2022-11-20T04:34:53;9.55;;;6.45;;
22415;SDS011;12204;50.600;4.608;2022-11-20T04:39:56;11.45;;;6.47;;
22415;SDS011;12204;50.600;4.608;2022-11-20T04:45:01;9.75;;;6.35;;
22415;SDS011;12204;50.600;4.608;2022-11-20T04:50:05;9.52;;;6.60;;
22415;SDS011;12204;50.600;4.608;2022-11-20T04:55:10;10.05;;;6.32;;
22415;SDS011;12204;50.600;4.608;2022-11-20T05:00:16;11.20;;;6.38;;
22415;SDS011;12204;50.600;4.608;2022-11-20T05:05:21;9.77;;;6.28;;
22415;SDS011;12204;50.600;4.608;2022-11-20T05:10:24;11.05;;;6.80;;
22415;SDS011;12204;50.600;4.608;2022-11-20T05:15:30;10.70;;;6.50;;
22415;SDS011;12204;50.600;4.608;2022-11-20T05:20:35;10.75;;;6.63;;
22415;SDS011;12204;50.600;4.608;2022-11-20T05:25:38;9.35;;;5.85;;
22415;SDS011;12204;50.600;4.608;2022-11-20T05:30:43;9.85;;;6.05;;
22415;SDS011;12204;50.600;4.608;2022-11-20T05:35:47;9.93;;;6.10;;
22415;SDS011;12204;50.600;4.608;2022-11-20T05:40:51;9.13;;;6.03;;
22415;SDS011;12204;50.600;4.608;2022-11-20T05:45:56;11.02;;;6.45;;
22415;SDS011;12204;50.600;4.608;2022-11-20T05:50:59;9.85;;;6.05;;
22415;SDS011;12204;50.600;4.608;2022-11-20T05:56:06;13.50;;;6.10;;
22415;SDS011;12204;50.600;4.608;2022-11-20T06:01:16;10.20;;;6.30;;
22415;SDS011;12204;50.600;4.608;2022-11-20T06:06:23;12.70;;;5.90;;
22415;SDS011;12204;50.600;4.608;2022-11-20T06:11:27;10.07;;;6.20;;
22415;SDS011;12204;50.600;4.608;2022-11-20T06:16:32;12.10;;;5.72;;
22415;SDS011;12204;50.600;4.608;2022-11-20T06:21:36;9.85;;;6.32;;
22415;SDS011;12204;50.600;4.608;2022-11-20T06:26:39;9.85;;;6.30;;
22415;SDS011;12204;50.600;4.608;2022-11-20T06:31:44;10.50;;;5.97;;
22415;SDS011;12204;50.600;4.608;2022-11-20T06:36:48;9.93;;;5.93;;
22415;SDS011;12204;50.600;4.608;2022-11-20T06:41:51;9.55;;;5.70;;
22415;SDS011;12204;50.600;4.608;2022-11-20T06:52:04;8.30;;;5.63;;
22415;SDS011;12204;50.600;4.608;2022-11-20T06:57:08;9.68;;;5.80;;
22415;SDS011;12204;50.600;4.608;2022-11-20T07:02:12;8.68;;;5.30;;
22415;SDS011;12204;50.600;4.608;2022-11-20T07:07:16;9.85;;;5.90;;
22415;SDS011;12204;50.600;4.608;2022-11-20T07:12:20;10.00;;;5.97;;
22415;SDS011;12204;50.600;4.608;2022-11-20T07:17:25;11.13;;;5.47;;
22415;SDS011;12204;50.600;4.608;2022-11-20T07:22:28;9.60;;;5.10;;
22415;SDS011;12204;50.600;4.608;2022-11-20T07:27:32;8.55;;;5.22;;
22415;SDS011;12204;50.600;4.608;2022-11-20T07:32:37;9.18;;;5.28;;
22415;SDS011;12204;50.600;4.608;2022-11-20T07:37:41;8.23;;;5.07;;
22415;SDS011;12204;50.600;4.608;2022-11-20T07:42:48;10.60;;;5.43;;
22415;SDS011;12204;50.600;4.608;2022-11-20T07:47:53;9.55;;;4.90;;
22415;SDS011;12204;50.600;4.608;2022-11-20T07:53:01;8.10;;;5.45;;
22415;SDS011;12204;50.600;4.608;2022-11-20T07:58:06;9.75;;;5.32;;
22415;SDS011;12204;50.600;4.608;2022-11-20T08:03:11;8.23;;;5.18;;
22415;SDS011;12204;50.600;4.608;2022-11-20T08:08:17;9.32;;;5.22;;
22415;SDS011;12204;50.600;4.608;2022-11-20T08:13:21;10.00;;;5.00;;
22415;SDS011;12204;50.600;4.608;2022-11-20T08:18:43;7.40;;;4.63;;
22415;SDS011;12204;50.600;4.608;2022-11-20T08:23:47;14.15;;;5.00;;
22415;SDS011;12204;50.600;4.608;2022-11-20T08:28:53;18.83;;;5.50;;
22415;SDS011;12204;50.600;4.608;2022-11-20T08:33:58;16.65;;;6.65;;
22415;SDS011;12204;50.600;4.608;2022-11-20T08:39:11;14.70;;;6.95;;
22415;SDS011;12204;50.600;4.608;2022-11-20T08:44:15;15.77;;;7.85;;
22415;SDS011;12204;50.600;4.608;2022-11-20T08:49:20;15.10;;;8.25;;
22415;SDS011;12204;50.600;4.608;2022-11-20T08:54:24;16.58;;;8.85;;
22415;SDS011;12204;50.600;4.608;2022-11-20T08:59:28;19.08;;;9.32;;
22415;SDS011;12204;50.600;4.608;2022-11-20T09:04:53;14.63;;;8.75;;
22415;SDS011;12204;50.600;4.608;2022-11-20T09:09:57;15.40;;;8.13;;
22415;SDS011;12204;50.600;4.608;2022-11-20T09:15:21;18.42;;;7.35;;
22415;SDS011;12204;50.600;4.608;2022-11-20T09:20:27;20.30;;;7.20;;
22415;SDS011;12204;50.600;4.608;2022-11-20T09:25:32;19.20;;;7.73;;
22415;SDS011;12204;50.600;4.608;2022-11-20T09:30:35;15.82;;;7.18;;
22415;SDS011;12204;50.600;4.608;2022-11-20T09:35:40;15.63;;;6.80;;
22415;SDS011;12204;50.600;4.608;2022-11-20T09:40:47;14.85;;;6.50;;
22415;SDS011;12204;50.600;4.608;2022-11-20T09:46:05;13.93;;;6.20;;
22415;SDS011;12204;50.600;4.608;2022-11-20T09:51:21;13.98;;;6.47;;
22415;SDS011;12204;50.600;4.608;2022-11-20T09:56:40;11.50;;;5.80;;
22415;SDS011;12204;50.600;4.608;2022-11-20T10:01:47;12.10;;;6.10;;
22415;SDS011;12204;50.600;4.608;2022-11-20T10:06:55;10.82;;;5.72;;
22415;SDS011;12204;50.600;4.608;2022-11-20T10:12:31;10.32;;;5.53;;
22415;SDS011;12204;50.600;4.608;2022-11-20T10:17:55;9.82;;;5.28;;
22415;SDS011;12204;50.600;4.608;2022-11-20T10:23:27;11.63;;;5.40;;
22415;SDS011;12204;50.600;4.608;2022-11-20T10:28:56;9.80;;;5.38;;
22415;SDS011;12204;50.600;4.608;2022-11-20T10:34:16;9.95;;;5.28;;
22415;SDS011;12204;50.600;4.608;2022-11-20T10:39:31;8.93;;;5.03;;
22415;SDS011;12204;50.600;4.608;2022-11-20T10:44:42;9.45;;;5.35;;
22415;SDS011;12204;50.600;4.608;2022-11-20T10:50:09;9.63;;;5.30;;
22415;SDS011;12204;50.600;4.608;2022-11-20T10:55:27;8.73;;;5.00;;
22415;SDS011;12204;50.600;4.608;2022-11-20T11:00:41;8.32;;;5.05;;
22415;SDS011;12204;50.600;4.608;2022-11-20T11:05:46;9.27;;;4.70;;
22415;SDS011;12204;50.600;4.608;2022-11-20T11:11:02;10.02;;;4.82;;
22415;SDS011;12204;50.600;4.608;2022-11-20T11:16:21;8.82;;;4.95;;
22415;SDS011;12204;50.600;4.608;2022-11-20T11:21:28;9.18;;;5.10;;
22415;SDS011;12204;50.600;4.608;2022-11-20T11:26:33;8.95;;;4.57;;
22415;SDS011;12204;50.600;4.608;2022-11-20T11:31:37;7.85;;;4.50;;
22415;SDS011;12204;50.600;4.608;2022-11-20T11:36:41;8.68;;;4.32;;
22415;SDS011;12204;50.600;4.608;2022-11-20T11:41:56;8.00;;;4.30;;
22415;SDS011;12204;50.600;4.608;2022-11-20T11:47:01;7.70;;;4.10;;
22415;SDS011;12204;50.600;4.608;2022-11-20T11:52:08;7.57;;;4.15;;
22415;SDS011;12204;50.600;4.608;2022-11-20T11:57:22;7.47;;;4.28;;
22415;SDS011;12204;50.600;4.608;2022-11-20T12:02:48;8.73;;;4.20;;
22415;SDS011;12204;50.600;4.608;2022-11-20T12:08:06;7.47;;;4.05;;
22415;SDS011;12204;50.600;4.608;2022-11-20T12:13:25;8.05;;;4.10;;
22415;SDS011;12204;50.600;4.608;2022-11-20T12:18:42;7.72;;;3.90;;
22415;SDS011;12204;50.600;4.608;2022-11-20T12:24:00;7.85;;;3.83;;
22415;SDS011;12204;50.600;4.608;2022-11-20T12:29:48;8.73;;;4.10;;
22415;SDS011;12204;50.600;4.608;2022-11-20T12:35:03;7.68;;;3.90;;
22415;SDS011;12204;50.600;4.608;2022-11-20T12:40:34;7.60;;;4.00;;
22415;SDS011;12204;50.600;4.608;2022-11-20T12:46:04;7.72;;;3.95;;
22415;SDS011;12204;50.600;4.608;2022-11-20T12:51:27;8.20;;;3.72;;
22415;SDS011;12204;50.600;4.608;2022-11-20T12:57:16;7.47;;;3.72;;
22415;SDS011;12204;50.600;4.608;2022-11-20T13:02:33;7.63;;;3.78;;
22415;SDS011;12204;50.600;4.608;2022-11-20T13:07:58;8.68;;;3.70;;
22415;SDS011;12204;50.600;4.608;2022-11-20T13:13:08;7.50;;;3.53;;
22415;SDS011;12204;50.600;4.608;2022-11-20T13:18:27;7.20;;;3.45;;
22415;SDS011;12204;50.600;4.608;2022-11-20T13:23:32;7.20;;;3.50;;
22415;SDS011;12204;50.600;4.608;2022-11-20T13:28:36;7.95;;;3.60;;
22415;SDS011;12204;50.600;4.608;2022-11-20T13:33:43;7.78;;;3.45;;
22415;SDS011;12204;50.600;4.608;2022-11-20T13:38:58;7.75;;;3.55;;
22415;SDS011;12204;50.600;4.608;2022-11-20T13:44:08;6.78;;;3.42;;
22415;SDS011;12204;50.600;4.608;2022-11-20T13:49:21;8.10;;;3.45;;
22415;SDS011;12204;50.600;4.608;2022-11-20T13:54:39;6.70;;;3.28;;
22415;SDS011;12204;50.600;4.608;2022-11-20T14:00:03;6.82;;;3.38;;
22415;SDS011;12204;50.600;4.608;2022-11-20T14:05:19;6.40;;;3.00;;
22415;SDS011;12204;50.600;4.608;2022-11-20T14:10:26;7.55;;;3.13;;
22415;SDS011;12204;50.600;4.608;2022-11-20T14:15:33;6.15;;;3.08;;
22415;SDS011;12204;50.600;4.608;2022-11-20T14:20:46;7.35;;;3.25;;
22415;SDS011;12204;50.600;4.608;2022-11-20T14:25:50;7.32;;;3.10;;
22415;SDS011;12204;50.600;4.608;2022-11-20T14:30:54;7.53;;;3.28;;
22415;SDS011;12204;50.600;4.608;2022-11-20T14:36:01;6.22;;;3.00;;
22415;SDS011;12204;50.600;4.608;2022-11-20T14:41:15;5.80;;;2.75;;
22415;SDS011;12204;50.600;4.608;2022-11-20T14:46:22;6.43;;;2.92;;
22415;SDS011;12204;50.600;4.608;2022-11-20T14:51:31;6.55;;;3.00;;
22415;SDS011;12204;50.600;4.608;2022-11-20T14:56:39;5.45;;;2.90;;
22415;SDS011;12204;50.600;4.608;2022-11-20T15:01:44;6.25;;;2.75;;
22415;SDS011;12204;50.600;4.608;2022-11-20T15:07:02;6.22;;;2.70;;
22415;SDS011;12204;50.600;4.608;2022-11-20T15:12:05;6.40;;;2.53;;
22415;SDS011;12204;50.600;4.608;2022-11-20T15:17:21;6.10;;;2.70;;
22415;SDS011;12204;50.600;4.608;2022-11-20T15:22:26;5.55;;;2.53;;
22415;SDS011;12204;50.600;4.608;2022-11-20T15:27:30;5.32;;;2.50;;
22415;SDS011;12204;50.600;4.608;2022-11-20T15:32:34;5.22;;;2.30;;
22415;SDS011;12204;50.600;4.608;2022-11-20T15:37:40;6.53;;;2.80;;
22415;SDS011;12204;50.600;4.608;2022-11-20T15:42:44;6.13;;;2.67;;
22415;SDS011;12204;50.600;4.608;2022-11-20T15:48:02;5.30;;;2.30;;
22415;SDS011;12204;50.600;4.608;2022-11-20T15:53:09;4.47;;;2.25;;
22415;SDS011;12204;50.600;4.608;2022-11-20T15:58:13;5.55;;;2.38;;
22415;SDS011;12204;50.600;4.608;2022-11-20T16:03:18;7.40;;;2.55;;
22415;SDS011;12204;50.600;4.608;2022-11-20T16:08:23;5.72;;;2.38;;
22415;SDS011;12204;50.600;4.608;2022-11-20T16:13:27;5.40;;;2.22;;
22415;SDS011;12204;50.600;4.608;2022-11-20T16:18:50;6.32;;;2.30;;
22415;SDS011;12204;50.600;4.608;2022-11-20T16:23:56;6.65;;;2.17;;
22415;SDS011;12204;50.600;4.608;2022-11-20T16:29:01;6.57;;;2.50;;
22415;SDS011;12204;50.600;4.608;2022-11-20T16:34:07;7.10;;;2.25;;
22415;SDS011;12204;50.600;4.608;2022-11-20T16:39:25;16.13;;;2.95;;
22415;SDS011;12204;50.600;4.608;2022-11-20T16:44:29;15.80;;;2.80;;
22415;SDS011;12204;50.600;4.608;2022-11-20T16:49:33;12.90;;;2.30;;
22415;SDS011;12204;50.600;4.608;2022-11-20T16:54:38;13.85;;;2.78;;
22415;SDS011;12204;50.600;4.608;2022-11-20T16:59:42;9.90;;;2.33;;
22415;SDS011;12204;50.600;4.608;2022-11-20T17:04:45;12.20;;;2.45;;
22415;SDS011;12204;50.600;4.608;2022-11-20T17:09:51;8.98;;;2.25;;
22415;SDS011;12204;50.600;4.608;2022-11-20T17:14:54;9.35;;;2.13;;
22415;SDS011;12204;50.600;4.608;2022-11-20T17:19:58;14.95;;;2.30;;
22415;SDS011;12204;50.600;4.608;2022-11-20T17:25:03;12.90;;;2.30;;
22415;SDS011;12204;50.600;4.608;2022-11-20T17:30:08;11.85;;;2.25;;
22415;SDS011;12204;50.600;4.608;2022-11-20T17:35:12;24.38;;;2.60;;
22415;SDS011;12204;50.600;4.608;2022-11-20T17:40:18;13.73;;;1.98;;
22415;SDS011;12204;50.600;4.608;2022-11-20T17:45:28;14.20;;;2.30;;
22415;SDS011;12204;50.600;4.608;2022-11-20T17:50:31;9.82;;;2.05;;
22415;SDS011;12204;50.600;4.608;2022-11-20T17:55:36;9.95;;;1.85;;
22415;SDS011;12204;50.600;4.608;2022-11-20T18:01:03;9.13;;;1.80;;
22415;SDS011;12204;50.600;4.608;2022-11-20T18:06:08;8.30;;;1.85;;
22415;SDS011;12204;50.600;4.608;2022-11-20T18:11:16;10.00;;;1.77;;
22415;SDS011;12204;50.600;4.608;2022-11-20T18:16:26;8.23;;;2.00;;
22415;SDS011;12204;50.600;4.608;2022-11-20T18:21:31;9.23;;;2.00;;
22415;SDS011;12204;50.600;4.608;2022-11-20T18:26:38;8.65;;;1.98;;
22415;SDS011;12204;50.600;4.608;2022-11-20T18:31:44;6.45;;;1.88;;
22415;SDS011;12204;50.600;4.608;2022-11-20T18:36:48;7.80;;;1.95;;
22415;SDS011;12204;50.600;4.608;2022-11-20T18:41:53;8.38;;;1.90;;
22415;SDS011;12204;50.600;4.608;2022-11-20T18:47:15;8.30;;;1.92;;
22415;SDS011;12204;50.600;4.608;2022-11-20T18:52:23;6.25;;;1.85;;
22415;SDS011;12204;50.600;4.608;2022-11-20T18:57:31;7.33;;;1.90;;
22415;SDS011;12204;50.600;4.608;2022-11-20T19:02:35;6.15;;;1.80;;
22415;SDS011;12204;50.600;4.608;2022-11-20T19:07:43;6.10;;;1.85;;
22415;SDS011;12204;50.600;4.608;2022-11-20T19:12:49;7.80;;;1.98;;
22415;SDS011;12204;50.600;4.608;2022-11-20T19:17:52;5.07;;;1.60;;
22415;SDS011;12204;50.600;4.608;2022-11-20T19:22:58;6.97;;;1.77;;
22415;SDS011;12204;50.600;4.608;2022-11-20T19:28:03;5.18;;;1.67;;
22415;SDS011;12204;50.600;4.608;2022-11-20T19:33:07;6.53;;;1.60;;
22415;SDS011;12204;50.600;4.608;2022-11-20T19:38:10;5.07;;;1.63;;
22415;SDS011;12204;50.600;4.608;2022-11-20T19:43:15;4.85;;;1.50;;
22415;SDS011;12204;50.600;4.608;2022-11-20T19:48:19;8.60;;;1.52;;
22415;SDS011;12204;50.600;4.608;2022-11-20T19:53:23;5.53;;;1.50;;
22415;SDS011;12204;50.600;4.608;2022-11-20T19:58:28;5.53;;;1.40;;
22415;SDS011;12204;50.600;4.608;2022-11-20T20:03:32;6.20;;;1.63;;
22415;SDS011;12204;50.600;4.608;2022-11-20T20:08:36;4.90;;;1.50;;
22415;SDS011;12204;50.600;4.608;2022-11-20T20:13:42;4.47;;;1.55;;
22415;SDS011;12204;50.600;4.608;2022-11-20T20:18:47;5.72;;;1.58;;
22415;SDS011;12204;50.600;4.608;2022-11-20T20:23:51;4.28;;;1.40;;
22415;SDS011;12204;50.600;4.608;2022-11-20T20:28:58;5.22;;;1.55;;
22415;SDS011;12204;50.600;4.608;2022-11-20T20:34:03;5.50;;;1.60;;
22415;SDS011;12204;50.600;4.608;2022-11-20T20:39:08;5.38;;;1.50;;
22415;SDS011;12204;50.600;4.608;2022-11-20T20:44:14;5.07;;;1.60;;
22415;SDS011;12204;50.600;4.608;2022-11-20T20:49:36;5.18;;;1.52;;
22415;SDS011;12204;50.600;4.608;2022-11-20T20:54:39;6.45;;;1.67;;
22415;SDS011;12204;50.600;4.608;2022-11-20T20:59:45;5.18;;;1.50;;
22415;SDS011;12204;50.600;4.608;2022-11-20T21:04:48;5.05;;;1.55;;
22415;SDS011;12204;50.600;4.608;2022-11-20T21:09:53;5.43;;;1.77;;
22415;SDS011;12204;50.600;4.608;2022-11-20T21:14:58;5.75;;;1.70;;
22415;SDS011;12204;50.600;4.608;2022-11-20T21:20:02;6.38;;;1.83;;
22415;SDS011;12204;50.600;4.608;2022-11-20T21:25:27;6.82;;;1.50;;
22415;SDS011;12204;50.600;4.608;2022-11-20T21:30:32;5.55;;;1.73;;
22415;SDS011;12204;50.600;4.608;2022-11-20T21:35:36;5.70;;;1.80;;
22415;SDS011;12204;50.600;4.608;2022-11-20T21:40:40;6.35;;;1.77;;
22415;SDS011;12204;50.600;4.608;2022-11-20T21:45:45;6.05;;;1.70;;
22415;SDS011;12204;50.600;4.608;2022-11-20T21:50:48;5.85;;;1.63;;
22415;SDS011;12204;50.600;4.608;2022-11-20T21:55:52;7.00;;;2.08;;
22415;SDS011;12204;50.600;4.608;2022-11-20T22:00:57;6.20;;;1.80;;
22415;SDS011;12204;50.600;4.608;2022-11-20T22:06:01;5.95;;;1.70;;
22415;SDS011;12204;50.600;4.608;2022-11-20T22:11:08;5.20;;;1.70;;
22415;SDS011;12204;50.600;4.608;2022-11-20T22:16:16;5.40;;;1.80;;
22415;SDS011;12204;50.600;4.608;2022-11-20T22:21:20;5.97;;;1.80;;
22415;SDS011;12204;50.600;4.608;2022-11-20T22:26:26;5.32;;;1.58;;
22415;SDS011;12204;50.600;4.608;2022-11-20T22:31:42;5.03;;;1.67;;
22415;SDS011;12204;50.600;4.608;2022-11-20T22:36:46;4.82;;;1.48;;
22415;SDS011;12204;50.600;4.608;2022-11-20T22:41:50;6.88;;;1.67;;
22415;SDS011;12204;50.600;4.608;2022-11-20T22:46:55;6.07;;;1.80;;
22415;SDS011;12204;50.600;4.608;2022-11-20T22:51:59;8.68;;;2.08;;
22415;SDS011;12204;50.600;4.608;2022-11-20T22:57:03;6.35;;;1.98;;
22415;SDS011;12204;50.600;4.608;2022-11-20T23:02:08;7.30;;;1.90;;
22415;SDS011;12204;50.600;4.608;2022-11-20T23:07:12;5.43;;;1.70;;
22415;SDS011;12204;50.600;4.608;2022-11-20T23:12:15;4.53;;;1.50;;
22415;SDS011;12204;50.600;4.608;2022-11-20T23:17:20;4.97;;;1.60;;
22415;SDS011;12204;50.600;4.608;2022-11-20T23:22:24;5.13;;;1.73;;
22415;SDS011;12204;50.600;4.608;2022-11-20T23:27:28;7.15;;;1.50;;
22415;SDS011;12204;50.600;4.608;2022-11-20T23:32:33;4.93;;;1.70;;
22415;SDS011;12204;50.600;4.608;2022-11-20T23:37:38;6.38;;;1.80;;
22415;SDS011;12204;50.600;4.608;2022-11-20T23:42:42;4.78;;;1.60;;
22415;SDS011;12204;50.600;4.608;2022-11-20T23:48:01;14.95;;;2.30;;
22415;SDS011;12204;50.600;4.608;2022-11-20T23:53:07;10.30;;;2.13;;
22415;SDS011;12204;50.600;4.608;2022-11-20T23:58:11;8.90;;;2.13;;
